Terminal Aerodrome Forecast
Issued by NWS

Home | Current Version | Previous Version | Text Only | Print | Product List | Glossary On
Versions: 1 2 3 4 5 6 7 8 9 10 11 12
000
FTUS42 KTAE 222300 RRA
TAFABY
TAF
KABY 222347Z 2300/2324 09009KT 4SM RA BR OVC025
     FM231600 20015G25KT P6SM SCT015 BKN030
     FM232100 21012G20KT P6SM VCTS BKN015CB BKN030=

USA.gov is the U.S. government's official web portal to all federal, state and local government web resources and services.